Sichomovi, Arizona
Current Conditions -  °F | °C
As of 10:56 AM on Thursday 23 Oct 2014 (Local Time) from KINW Reporting Station
Clear Clear  
Wind Chill: 68°   Ceiling: Unl
Heat Index: 68°   Visibility: 10mi
Dew Point: 39°   Wind: 5mph
Humidity: 35%   Direction: 50°NE
Pressure: 30.27"   Gusts: NA
Location:  35.9347°N, 110.453°W
Report Text: KINW 231756Z AUTO 05004KT 10SM CLR 20/04 A3027 RMK AO2 SLP205 T02000039 10200 20039 58001
Loading
Personal Weather Stations






























Interactive Weather Map
Tropical Storm Tracking
New forecast layout! Learn more

10-Day Weather Forecast

Advertisements
Track Severe Weather on mobile